sensor_id;sensor_type;location;lat;lon;timestamp;pressure;altitude;pressure_sealevel;temperature;humidity
32642;BME280;19323;56.072;9.698;2022-12-15T00:02:19;99312.66;;;24.76;36.96
32642;BME280;19323;56.072;9.698;2022-12-15T00:05:03;99313.66;;;24.75;36.78
32642;BME280;19323;56.072;9.698;2022-12-15T00:07:47;99323.88;;;24.86;36.85
32642;BME280;19323;56.072;9.698;2022-12-15T00:10:31;99318.84;;;24.76;37.09
32642;BME280;19323;56.072;9.698;2022-12-15T00:13:15;99314.06;;;24.72;36.96
32642;BME280;19323;56.072;9.698;2022-12-15T00:15:59;99326.06;;;24.76;37.04
32642;BME280;19323;56.072;9.698;2022-12-15T00:18:43;99317.19;;;24.75;36.80
32642;BME280;19323;56.072;9.698;2022-12-15T00:21:27;99319.03;;;24.75;36.62
32642;BME280;19323;56.072;9.698;2022-12-15T00:24:11;99329.94;;;24.73;36.86
32642;BME280;19323;56.072;9.698;2022-12-15T00:26:55;99331.59;;;24.74;37.00
32642;BME280;19323;56.072;9.698;2022-12-15T00:29:38;99332.63;;;24.73;36.99
32642;BME280;19323;56.072;9.698;2022-12-15T00:32:22;99340.66;;;24.73;36.93
32642;BME280;19323;56.072;9.698;2022-12-15T00:35:07;99326.22;;;24.74;36.80
32642;BME280;19323;56.072;9.698;2022-12-15T00:37:51;99328.09;;;24.74;37.06
32642;BME280;19323;56.072;9.698;2022-12-15T00:40:36;99337.13;;;24.73;36.72
32642;BME280;19323;56.072;9.698;2022-12-15T00:43:01;99324.59;;;24.73;37.06
32642;BME280;19323;56.072;9.698;2022-12-15T00:45:26;99329.09;;;24.73;37.01
32642;BME280;19323;56.072;9.698;2022-12-15T00:48:11;99330.28;;;24.70;36.93
32642;BME280;19323;56.072;9.698;2022-12-15T00:50:37;99329.28;;;24.71;36.73
32642;BME280;19323;56.072;9.698;2022-12-15T00:53:21;99338.63;;;24.75;36.78
32642;BME280;19323;56.072;9.698;2022-12-15T00:56:06;99340.34;;;24.68;36.96
32642;BME280;19323;56.072;9.698;2022-12-15T00:58:50;99340.91;;;24.78;36.82
32642;BME280;19323;56.072;9.698;2022-12-15T01:01:34;99341.81;;;24.71;36.66
32642;BME280;19323;56.072;9.698;2022-12-15T01:04:18;99337.03;;;24.66;37.17
32642;BME280;19323;56.072;9.698;2022-12-15T01:07:02;99323.94;;;24.56;36.96
32642;BME280;19323;56.072;9.698;2022-12-15T01:09:46;99347.38;;;24.69;37.06
32642;BME280;19323;56.072;9.698;2022-12-15T01:12:30;99349.41;;;24.67;36.73
32642;BME280;19323;56.072;9.698;2022-12-15T01:15:14;99352.75;;;24.69;36.86
32642;BME280;19323;56.072;9.698;2022-12-15T01:17:57;99352.94;;;24.67;36.86
32642;BME280;19323;56.072;9.698;2022-12-15T01:20:42;99354.13;;;24.65;36.69
32642;BME280;19323;56.072;9.698;2022-12-15T01:23:07;99373.31;;;24.68;36.76
32642;BME280;19323;56.072;9.698;2022-12-15T01:25:32;99366.88;;;24.63;36.86
32642;BME280;19323;56.072;9.698;2022-12-15T01:27:58;99363.16;;;24.64;36.73
32642;BME280;19323;56.072;9.698;2022-12-15T01:30:25;99377.84;;;24.68;36.72
32642;BME280;19323;56.072;9.698;2022-12-15T01:32:51;99377.19;;;24.66;36.84
32642;BME280;19323;56.072;9.698;2022-12-15T01:35:18;99384.22;;;24.67;36.58
32642;BME280;19323;56.072;9.698;2022-12-15T01:37:43;99387.72;;;24.67;36.59
32642;BME280;19323;56.072;9.698;2022-12-15T01:40:14;99382.56;;;24.66;36.63
32642;BME280;19323;56.072;9.698;2022-12-15T01:42:58;99385.22;;;24.66;36.52
32642;BME280;19323;56.072;9.698;2022-12-15T01:47:54;99386.91;;;24.67;36.79
32642;BME280;19323;56.072;9.698;2022-12-15T01:50:22;99391.63;;;24.65;36.59
32642;BME280;19323;56.072;9.698;2022-12-15T01:52:49;99387.91;;;24.66;36.71
32642;BME280;19323;56.072;9.698;2022-12-15T01:55:16;99395.75;;;24.67;36.67
32642;BME280;19323;56.072;9.698;2022-12-15T01:57:42;99399.47;;;24.66;36.80
32642;BME280;19323;56.072;9.698;2022-12-15T02:00:09;99364.72;;;24.43;36.68
32642;BME280;19323;56.072;9.698;2022-12-15T02:02:36;99402.16;;;24.66;36.61
32642;BME280;19323;56.072;9.698;2022-12-15T02:05:04;99402.16;;;24.66;36.57
32642;BME280;19323;56.072;9.698;2022-12-15T02:07:30;99410.19;;;24.66;36.48
32642;BME280;19323;56.072;9.698;2022-12-15T02:09:57;99399.47;;;24.66;36.41
32642;BME280;19323;56.072;9.698;2022-12-15T02:12:33;99409.41;;;24.73;36.44
32642;BME280;19323;56.072;9.698;2022-12-15T02:18:08;99406.94;;;24.71;36.63
32642;BME280;19323;56.072;9.698;2022-12-15T02:20:43;99392.63;;;24.64;36.54
32642;BME280;19323;56.072;9.698;2022-12-15T02:23:38;99415.78;;;24.72;36.48
32642;BME280;19323;56.072;9.698;2022-12-15T02:29:46;99416.16;;;24.68;36.39
32642;BME280;19323;56.072;9.698;2022-12-15T02:32:24;99411.19;;;24.65;36.20
32642;BME280;19323;56.072;9.698;2022-12-15T02:34:57;99423.34;;;24.68;36.42
32642;BME280;19323;56.072;9.698;2022-12-15T02:37:30;99429.75;;;24.67;36.38
32642;BME280;19323;56.072;9.698;2022-12-15T02:39:56;99424.94;;;24.62;36.54
32642;BME280;19323;56.072;9.698;2022-12-15T02:42:22;99420.41;;;24.63;36.29
32642;BME280;19323;56.072;9.698;2022-12-15T02:45:27;99429.00;;;24.73;36.23
32642;BME280;19323;56.072;9.698;2022-12-15T02:48:09;99428.38;;;24.71;36.16
32642;BME280;19323;56.072;9.698;2022-12-15T02:53:24;99427.50;;;24.71;36.19
32642;BME280;19323;56.072;9.698;2022-12-15T02:56:16;99426.50;;;24.72;36.06
32642;BME280;19323;56.072;9.698;2022-12-15T02:59:08;99436.19;;;24.73;36.33
32642;BME280;19323;56.072;9.698;2022-12-15T03:01:51;99432.03;;;24.70;36.20
32642;BME280;19323;56.072;9.698;2022-12-15T03:04:18;99438.13;;;24.64;36.34
32642;BME280;19323;56.072;9.698;2022-12-15T03:06:44;99447.84;;;24.65;36.31
32642;BME280;19323;56.072;9.698;2022-12-15T03:09:09;99444.50;;;24.63;36.12
32642;BME280;19323;56.072;9.698;2022-12-15T03:11:35;99460.19;;;24.66;36.23
32642;BME280;19323;56.072;9.698;2022-12-15T03:14:01;99449.69;;;24.64;36.18
32642;BME280;19323;56.072;9.698;2022-12-15T03:16:26;99456.03;;;24.63;36.35
32642;BME280;19323;56.072;9.698;2022-12-15T03:18:51;99454.19;;;24.64;36.10
32642;BME280;19323;56.072;9.698;2022-12-15T03:21:16;99445.50;;;24.62;36.26
32642;BME280;19323;56.072;9.698;2022-12-15T03:23:42;99454.84;;;24.66;36.28
32642;BME280;19323;56.072;9.698;2022-12-15T03:26:07;99402.47;;;24.34;36.05
32642;BME280;19323;56.072;9.698;2022-12-15T03:28:32;99455.88;;;24.65;36.12
32642;BME280;19323;56.072;9.698;2022-12-15T03:30:58;99467.56;;;24.64;36.16
32642;BME280;19323;56.072;9.698;2022-12-15T03:33:23;99469.44;;;24.63;36.12
32642;BME280;19323;56.072;9.698;2022-12-15T03:35:49;99463.06;;;24.64;35.94
32642;BME280;19323;56.072;9.698;2022-12-15T03:38:15;99463.06;;;24.64;36.08
32642;BME280;19323;56.072;9.698;2022-12-15T03:40:40;99460.56;;;24.63;36.26
32642;BME280;19323;56.072;9.698;2022-12-15T03:43:06;99462.22;;;24.64;36.44
32642;BME280;19323;56.072;9.698;2022-12-15T03:45:31;99457.91;;;24.63;36.00
32642;BME280;19323;56.072;9.698;2022-12-15T03:47:56;99456.22;;;24.62;36.10
32642;BME280;19323;56.072;9.698;2022-12-15T03:50:24;99461.22;;;24.65;36.16
32642;BME280;19323;56.072;9.698;2022-12-15T03:52:55;99470.56;;;24.69;36.13
32642;BME280;19323;56.072;9.698;2022-12-15T03:55:21;99465.75;;;24.64;36.03
32642;BME280;19323;56.072;9.698;2022-12-15T03:57:48;99460.41;;;24.64;36.10
32642;BME280;19323;56.072;9.698;2022-12-15T04:00:14;99458.72;;;24.63;35.78
32642;BME280;19323;56.072;9.698;2022-12-15T04:02:41;99477.28;;;24.65;36.06
32642;BME280;19323;56.072;9.698;2022-12-15T04:05:07;99474.78;;;24.63;35.71
32642;BME280;19323;56.072;9.698;2022-12-15T04:07:33;99484.50;;;24.64;35.74
32642;BME280;19323;56.072;9.698;2022-12-15T04:09:58;99487.34;;;24.63;35.92
32642;BME280;19323;56.072;9.698;2022-12-15T04:12:23;99478.50;;;24.62;35.94
32642;BME280;19323;56.072;9.698;2022-12-15T04:14:49;99482.00;;;24.63;35.72
32642;BME280;19323;56.072;9.698;2022-12-15T04:17:14;99485.31;;;24.65;36.00
32642;BME280;19323;56.072;9.698;2022-12-15T04:19:39;99483.47;;;24.65;35.73
32642;BME280;19323;56.072;9.698;2022-12-15T04:22:23;99474.97;;;24.62;35.81
32642;BME280;19323;56.072;9.698;2022-12-15T04:24:48;99479.31;;;24.63;35.72
32642;BME280;19323;56.072;9.698;2022-12-15T04:27:32;99480.31;;;24.62;35.95
32642;BME280;19323;56.072;9.698;2022-12-15T04:30:17;99496.19;;;24.63;35.87
32642;BME280;19323;56.072;9.698;2022-12-15T04:33:01;99487.34;;;24.63;35.83
32642;BME280;19323;56.072;9.698;2022-12-15T04:35:47;99492.44;;;24.58;35.65
32642;BME280;19323;56.072;9.698;2022-12-15T04:38:31;99509.13;;;24.60;35.70
32642;BME280;19323;56.072;9.698;2022-12-15T04:41:17;99512.25;;;24.63;35.70
32642;BME280;19323;56.072;9.698;2022-12-15T04:44:02;99510.78;;;24.61;35.94
32642;BME280;19323;56.072;9.698;2022-12-15T04:46:47;99506.47;;;24.60;35.95
32642;BME280;19323;56.072;9.698;2022-12-15T04:49:30;99495.75;;;24.60;36.21
32642;BME280;19323;56.072;9.698;2022-12-15T04:52:14;99492.06;;;24.61;36.25
32642;BME280;19323;56.072;9.698;2022-12-15T05:07:33;99500.00;;;24.69;36.18
32642;BME280;19323;56.072;9.698;2022-12-15T05:10:16;99505.16;;;24.71;36.06
32642;BME280;19323;56.072;9.698;2022-12-15T05:13:07;99508.31;;;24.74;36.09
32642;BME280;19323;56.072;9.698;2022-12-15T05:15:52;99509.03;;;24.68;36.32
32642;BME280;19323;56.072;9.698;2022-12-15T05:18:36;99512.91;;;24.65;36.34
32642;BME280;19323;56.072;9.698;2022-12-15T05:21:19;99521.78;;;24.66;36.66
32642;BME280;19323;56.072;9.698;2022-12-15T05:24:03;99520.94;;;24.65;36.42
32642;BME280;19323;56.072;9.698;2022-12-15T05:26:48;99531.00;;;24.63;36.29
32642;BME280;19323;56.072;9.698;2022-12-15T05:29:31;99527.69;;;24.61;36.41
32642;BME280;19323;56.072;9.698;2022-12-15T05:32:15;99534.88;;;24.61;36.42
32642;BME280;19323;56.072;9.698;2022-12-15T05:34:41;99543.56;;;24.63;36.43
32642;BME280;19323;56.072;9.698;2022-12-15T05:37:06;99542.75;;;24.62;36.44
32642;BME280;19323;56.072;9.698;2022-12-15T05:39:32;99549.91;;;24.62;36.47
32642;BME280;19323;56.072;9.698;2022-12-15T05:41:58;99543.75;;;24.61;36.59
32642;BME280;19323;56.072;9.698;2022-12-15T05:44:23;99550.13;;;24.60;36.53
32642;BME280;19323;56.072;9.698;2022-12-15T05:46:49;99554.44;;;24.61;36.39
32642;BME280;19323;56.072;9.698;2022-12-15T05:49:16;99552.81;;;24.60;36.42
32642;BME280;19323;56.072;9.698;2022-12-15T05:51:44;99562.47;;;24.61;36.28
32642;BME280;19323;56.072;9.698;2022-12-15T05:54:12;99567.66;;;24.63;36.51
32642;BME280;19323;56.072;9.698;2022-12-15T05:56:39;99576.69;;;24.62;36.52
32642;BME280;19323;56.072;9.698;2022-12-15T05:59:05;99559.88;;;24.53;36.33
32642;BME280;19323;56.072;9.698;2022-12-15T06:01:30;99584.72;;;24.62;36.68
32642;BME280;19323;56.072;9.698;2022-12-15T06:03:56;99583.06;;;24.61;36.74
32642;BME280;19323;56.072;9.698;2022-12-15T06:06:22;99591.75;;;24.63;36.71
32642;BME280;19323;56.072;9.698;2022-12-15T06:08:47;99588.06;;;24.64;36.73
32642;BME280;19323;56.072;9.698;2022-12-15T06:11:14;99595.25;;;24.63;37.00
32642;BME280;19323;56.072;9.698;2022-12-15T06:13:39;99591.09;;;24.61;36.86
32642;BME280;19323;56.072;9.698;2022-12-15T06:16:06;99594.44;;;24.63;36.91
32642;BME280;19323;56.072;9.698;2022-12-15T06:18:38;99598.59;;;24.65;36.96
32642;BME280;19323;56.072;9.698;2022-12-15T06:21:09;99602.94;;;24.66;36.99
32642;BME280;19323;56.072;9.698;2022-12-15T06:23:36;99607.16;;;24.61;36.78
32642;BME280;19323;56.072;9.698;2022-12-15T06:26:17;99612.47;;;24.69;36.86
32642;BME280;19323;56.072;9.698;2022-12-15T06:28:42;99614.19;;;24.62;36.99
32642;BME280;19323;56.072;9.698;2022-12-15T06:31:09;99620.38;;;24.62;37.04
32642;BME280;19323;56.072;9.698;2022-12-15T06:33:35;99628.41;;;24.62;36.66
32642;BME280;19323;56.072;9.698;2022-12-15T06:36:08;99633.22;;;24.67;36.76
32642;BME280;19323;56.072;9.698;2022-12-15T06:38:35;99631.25;;;24.61;36.75
32642;BME280;19323;56.072;9.698;2022-12-15T06:41:02;99635.41;;;24.63;36.67
32642;BME280;19323;56.072;9.698;2022-12-15T06:43:28;99639.13;;;24.62;36.75
32642;BME280;19323;56.072;9.698;2022-12-15T06:45:54;99640.31;;;24.60;36.70
32642;BME280;19323;56.072;9.698;2022-12-15T06:48:21;99637.44;;;24.61;36.66
32642;BME280;19323;56.072;9.698;2022-12-15T06:50:46;99635.59;;;24.62;36.70
32642;BME280;19323;56.072;9.698;2022-12-15T06:53:13;99647.97;;;24.63;36.56
32642;BME280;19323;56.072;9.698;2022-12-15T06:55:38;99644.81;;;24.59;36.60
32642;BME280;19323;56.072;9.698;2022-12-15T06:58:04;99651.19;;;24.58;36.54
32642;BME280;19323;56.072;9.698;2022-12-15T07:00:29;99658.03;;;24.61;36.19
32642;BME280;19323;56.072;9.698;2022-12-15T07:02:54;99659.06;;;24.60;36.34
32642;BME280;19323;56.072;9.698;2022-12-15T07:05:20;99663.38;;;24.61;36.08
32642;BME280;19323;56.072;9.698;2022-12-15T07:07:46;99666.06;;;24.61;36.21
32642;BME280;19323;56.072;9.698;2022-12-15T07:10:11;99665.03;;;24.62;36.23
32642;BME280;19323;56.072;9.698;2022-12-15T07:12:36;99676.78;;;24.61;36.21
32642;BME280;19323;56.072;9.698;2022-12-15T07:15:02;99675.13;;;24.60;36.37
32642;BME280;19323;56.072;9.698;2022-12-15T07:17:27;99682.31;;;24.59;35.92
32642;BME280;19323;56.072;9.698;2022-12-15T07:19:54;99690.34;;;24.59;36.05
32642;BME280;19323;56.072;9.698;2022-12-15T07:22:19;99700.03;;;24.60;36.17
32642;BME280;19323;56.072;9.698;2022-12-15T07:24:46;99694.22;;;24.57;35.93
32642;BME280;19323;56.072;9.698;2022-12-15T07:27:11;99694.88;;;24.59;36.00
32642;BME280;19323;56.072;9.698;2022-12-15T07:29:36;99693.38;;;24.56;36.11
32642;BME280;19323;56.072;9.698;2022-12-15T07:32:01;99688.19;;;24.55;36.15
32642;BME280;19323;56.072;9.698;2022-12-15T07:34:26;99700.22;;;24.59;35.83
32642;BME280;19323;56.072;9.698;2022-12-15T07:36:52;99704.91;;;24.57;35.76
32642;BME280;19323;56.072;9.698;2022-12-15T07:39:17;99710.94;;;24.59;35.74
32642;BME280;19323;56.072;9.698;2022-12-15T07:41:42;99715.44;;;24.58;35.88
32642;BME280;19323;56.072;9.698;2022-12-15T07:44:07;99714.63;;;24.58;35.64
32642;BME280;19323;56.072;9.698;2022-12-15T07:46:34;99713.78;;;24.57;35.88
32642;BME280;19323;56.072;9.698;2022-12-15T07:48:59;99727.34;;;24.56;35.80
32642;BME280;19323;56.072;9.698;2022-12-15T07:51:24;99733.69;;;24.55;35.87
32642;BME280;19323;56.072;9.698;2022-12-15T07:53:50;99739.88;;;24.55;35.55
32642;BME280;19323;56.072;9.698;2022-12-15T07:56:15;99744.25;;;24.56;35.74
32642;BME280;19323;56.072;9.698;2022-12-15T07:58:40;99746.09;;;24.56;35.65
32642;BME280;19323;56.072;9.698;2022-12-15T08:01:08;99753.09;;;24.57;35.55
32642;BME280;19323;56.072;9.698;2022-12-15T08:03:35;99751.44;;;24.56;35.38
32642;BME280;19323;56.072;9.698;2022-12-15T08:06:04;99757.09;;;24.61;35.57
32642;BME280;19323;56.072;9.698;2022-12-15T08:08:30;99755.13;;;24.55;35.61
32642;BME280;19323;56.072;9.698;2022-12-15T08:10:55;99747.91;;;24.55;35.54
32642;BME280;19323;56.072;9.698;2022-12-15T08:13:21;99753.09;;;24.57;35.40
32642;BME280;19323;56.072;9.698;2022-12-15T08:15:46;99747.09;;;24.55;35.42
32642;BME280;19323;56.072;9.698;2022-12-15T08:18:11;99761.97;;;24.57;35.48
32642;BME280;19323;56.072;9.698;2022-12-15T08:20:36;99765.66;;;24.56;35.52
32642;BME280;19323;56.072;9.698;2022-12-15T08:23:02;99768.50;;;24.55;35.68
32642;BME280;19323;56.072;9.698;2022-12-15T08:25:27;99778.38;;;24.54;35.32
32642;BME280;19323;56.072;9.698;2022-12-15T08:27:54;99777.72;;;24.52;35.49
32642;BME280;19323;56.072;9.698;2022-12-15T08:30:19;99779.38;;;24.53;35.69
32642;BME280;19323;56.072;9.698;2022-12-15T08:32:45;99776.06;;;24.51;35.33
32642;BME280;19323;56.072;9.698;2022-12-15T08:35:10;99781.59;;;24.50;35.34
32642;BME280;19323;56.072;9.698;2022-12-15T08:37:36;99783.91;;;24.53;35.23
32642;BME280;19323;56.072;9.698;2022-12-15T08:40:01;99804.34;;;24.54;35.35
32642;BME280;19323;56.072;9.698;2022-12-15T08:42:32;99803.31;;;24.55;35.41
32642;BME280;19323;56.072;9.698;2022-12-15T08:44:57;99803.66;;;24.52;35.38
32642;BME280;19323;56.072;9.698;2022-12-15T08:47:23;99805.31;;;24.53;35.32
32642;BME280;19323;56.072;9.698;2022-12-15T08:49:48;99809.03;;;24.52;35.19
32642;BME280;19323;56.072;9.698;2022-12-15T08:52:14;99808.19;;;24.51;35.19
32642;BME280;19323;56.072;9.698;2022-12-15T08:54:39;99806.34;;;24.52;35.28
32642;BME280;19323;56.072;9.698;2022-12-15T08:57:04;99817.72;;;24.54;35.02
32642;BME280;19323;56.072;9.698;2022-12-15T08:59:30;99806.50;;;24.50;34.96
32642;BME280;19323;56.072;9.698;2022-12-15T09:01:55;99812.53;;;24.52;35.23
32642;BME280;19323;56.072;9.698;2022-12-15T09:04:20;99830.44;;;24.52;35.13
32642;BME280;19323;56.072;9.698;2022-12-15T09:06:45;99828.75;;;24.51;35.13
32642;BME280;19323;56.072;9.698;2022-12-15T09:09:11;99840.13;;;24.53;35.10
32642;BME280;19323;56.072;9.698;2022-12-15T09:11:37;99841.16;;;24.52;35.00
32642;BME280;19323;56.072;9.698;2022-12-15T09:14:03;99840.94;;;24.53;35.12
32642;BME280;19323;56.072;9.698;2022-12-15T09:16:28;99836.78;;;24.51;35.02
32642;BME280;19323;56.072;9.698;2022-12-15T09:18:56;99848.66;;;24.56;34.68
32642;BME280;19323;56.072;9.698;2022-12-15T09:21:24;99852.50;;;24.54;34.66
32642;BME280;19323;56.072;9.698;2022-12-15T09:23:52;99865.03;;;24.53;34.99
32642;BME280;19323;56.072;9.698;2022-12-15T09:26:19;99866.72;;;24.54;34.62
32642;BME280;19323;56.072;9.698;2022-12-15T09:28:45;99877.81;;;24.51;35.04
32642;BME280;19323;56.072;9.698;2022-12-15T09:31:36;99889.47;;;24.58;34.75
32642;BME280;19323;56.072;9.698;2022-12-15T09:34:02;99887.66;;;24.51;34.94
32642;BME280;19323;56.072;9.698;2022-12-15T09:36:28;99887.66;;;24.51;34.75
32642;BME280;19323;56.072;9.698;2022-12-15T09:38:54;99888.50;;;24.51;34.76
32642;BME280;19323;56.072;9.698;2022-12-15T09:41:26;99889.81;;;24.55;34.54
32642;BME280;19323;56.072;9.698;2022-12-15T09:48:57;99900.50;;;24.55;34.62
32642;BME280;19323;56.072;9.698;2022-12-15T09:51:35;99908.06;;;24.60;34.58
32642;BME280;19323;56.072;9.698;2022-12-15T09:54:03;99900.03;;;24.52;34.71
32642;BME280;19323;56.072;9.698;2022-12-15T09:56:39;99901.69;;;24.61;34.58
32642;BME280;19323;56.072;9.698;2022-12-15T09:59:25;99908.06;;;24.60;34.62
32642;BME280;19323;56.072;9.698;2022-12-15T10:04:38;99901.00;;;24.59;34.58
32642;BME280;19323;56.072;9.698;2022-12-15T10:09:50;99905.41;;;24.52;34.62
32642;BME280;19323;56.072;9.698;2022-12-15T10:12:27;99905.69;;;24.57;34.60
32642;BME280;19323;56.072;9.698;2022-12-15T10:17:44;99903.03;;;24.57;34.28
32642;BME280;19323;56.072;9.698;2022-12-15T10:20:21;99913.72;;;24.57;34.36
32642;BME280;19323;56.072;9.698;2022-12-15T10:22:48;99917.75;;;24.53;34.39
32642;BME280;19323;56.072;9.698;2022-12-15T10:25:21;99918.44;;;24.55;34.35
32642;BME280;19323;56.072;9.698;2022-12-15T10:30:21;99916.72;;;24.62;34.53
32642;BME280;19323;56.072;9.698;2022-12-15T10:35:31;99920.78;;;24.58;34.42
32642;BME280;19323;56.072;9.698;2022-12-15T10:38:02;99908.38;;;24.57;34.36
32642;BME280;19323;56.072;9.698;2022-12-15T10:40:50;99909.19;;;24.65;34.32
32642;BME280;19323;56.072;9.698;2022-12-15T10:43:38;99905.69;;;24.65;34.28
32642;BME280;19323;56.072;9.698;2022-12-15T10:46:16;99908.34;;;24.65;34.22
32642;BME280;19323;56.072;9.698;2022-12-15T10:48:55;99909.03;;;24.67;34.12
32642;BME280;19323;56.072;9.698;2022-12-15T10:51:36;99904.34;;;24.69;34.02
32642;BME280;19323;56.072;9.698;2022-12-15T10:54:13;99905.31;;;24.68;34.16
32642;BME280;19323;56.072;9.698;2022-12-15T10:56:56;99908.13;;;24.75;34.10
32642;BME280;19323;56.072;9.698;2022-12-15T11:01:47;99910.69;;;24.68;34.03
32642;BME280;19323;56.072;9.698;2022-12-15T11:04:29;99911.47;;;24.77;34.08
32642;BME280;19323;56.072;9.698;2022-12-15T11:07:00;99914.03;;;24.70;33.92
32642;BME280;19323;56.072;9.698;2022-12-15T11:09:32;99914.69;;;24.72;33.75
32642;BME280;19323;56.072;9.698;2022-12-15T11:11:58;99905.31;;;24.68;33.96
32642;BME280;19323;56.072;9.698;2022-12-15T11:14:47;99913.50;;;24.75;33.76
32642;BME280;19323;56.072;9.698;2022-12-15T11:17:14;99922.88;;;24.71;34.07
32642;BME280;19323;56.072;9.698;2022-12-15T11:20:03;99932.25;;;24.75;34.03
32642;BME280;19323;56.072;9.698;2022-12-15T11:22:43;99934.75;;;24.76;33.96
32642;BME280;19323;56.072;9.698;2022-12-15T11:27:56;99922.22;;;24.68;34.05
32642;BME280;19323;56.072;9.698;2022-12-15T11:30:30;99924.06;;;24.68;33.78
32642;BME280;19323;56.072;9.698;2022-12-15T11:32:58;99932.09;;;24.68;33.88
32642;BME280;19323;56.072;9.698;2022-12-15T11:35:29;99927.56;;;24.68;33.85
32642;BME280;19323;56.072;9.698;2022-12-15T11:38:07;99932.59;;;24.72;34.02
32642;BME280;19323;56.072;9.698;2022-12-15T11:40:39;99932.47;;;24.65;33.97
32642;BME280;19323;56.072;9.698;2022-12-15T11:46:20;99936.94;;;24.73;33.84
32642;BME280;19323;56.072;9.698;2022-12-15T11:48:56;99946.31;;;24.68;34.14
32642;BME280;19323;56.072;9.698;2022-12-15T11:55:10;99961.91;;;24.73;33.94
32642;BME280;19323;56.072;9.698;2022-12-15T11:59:54;99970.91;;;24.72;33.92
32642;BME280;19323;56.072;9.698;2022-12-15T12:08:23;99965.91;;;24.69;34.10
32642;BME280;19323;56.072;9.698;2022-12-15T12:13:40;99964.72;;;24.72;34.01
32642;BME280;19323;56.072;9.698;2022-12-15T12:19:03;99965.72;;;24.71;33.92
32642;BME280;19323;56.072;9.698;2022-12-15T12:21:38;99960.72;;;24.67;33.76
32642;BME280;19323;56.072;9.698;2022-12-15T12:29:17;99959.91;;;24.67;33.87
32642;BME280;19323;56.072;9.698;2022-12-15T12:32:14;99964.22;;;24.68;33.95
32642;BME280;19323;56.072;9.698;2022-12-15T12:37:43;99969.13;;;24.64;34.30
32642;BME280;19323;56.072;9.698;2022-12-15T12:40:18;99975.47;;;24.63;34.36
32642;BME280;19323;56.072;9.698;2022-12-15T12:42:54;99974.13;;;24.67;33.98
32642;BME280;19323;56.072;9.698;2022-12-15T12:48:02;99981.66;;;24.64;34.06
32642;BME280;19323;56.072;9.698;2022-12-15T12:50:32;99982.66;;;24.63;34.29
32642;BME280;19323;56.072;9.698;2022-12-15T12:53:00;99977.16;;;24.64;34.06
32642;BME280;19323;56.072;9.698;2022-12-15T12:55:41;99980.28;;;24.68;33.97
32642;BME280;19323;56.072;9.698;2022-12-15T12:58:30;99983.47;;;24.72;33.90
32642;BME280;19323;56.072;9.698;2022-12-15T13:03:29;99970.25;;;24.62;33.95
32642;BME280;19323;56.072;9.698;2022-12-15T13:05:55;99977.31;;;24.63;34.05
32642;BME280;19323;56.072;9.698;2022-12-15T13:08:27;99974.94;;;24.68;34.09
32642;BME280;19323;56.072;9.698;2022-12-15T13:10:53;99975.63;;;24.62;34.21
32642;BME280;19323;56.072;9.698;2022-12-15T13:16:21;99977.09;;;24.73;34.18
32642;BME280;19323;56.072;9.698;2022-12-15T13:19:03;99982.47;;;24.73;34.07
32642;BME280;19323;56.072;9.698;2022-12-15T13:24:29;99982.13;;;24.76;34.19
32642;BME280;19323;56.072;9.698;2022-12-15T13:29:33;99984.81;;;24.67;34.33
32642;BME280;19323;56.072;9.698;2022-12-15T13:31:59;99984.00;;;24.67;34.36
32642;BME280;19323;56.072;9.698;2022-12-15T13:34:26;99989.00;;;24.70;34.38
32642;BME280;19323;56.072;9.698;2022-12-15T13:36:54;99990.03;;;24.69;34.55
32642;BME280;19323;56.072;9.698;2022-12-15T13:44:27;100004.53;;;24.75;34.10
32642;BME280;19323;56.072;9.698;2022-12-15T13:47:03;100001.19;;;24.73;34.26
32642;BME280;19323;56.072;9.698;2022-12-15T13:49:36;100009.25;;;24.73;34.22
32642;BME280;19323;56.072;9.698;2022-12-15T13:52:12;100015.78;;;24.70;34.24
32642;BME280;19323;56.072;9.698;2022-12-15T13:54:41;100014.28;;;24.67;34.43
32642;BME280;19323;56.072;9.698;2022-12-15T13:57:11;100027.66;;;24.67;34.20
32642;BME280;19323;56.072;9.698;2022-12-15T14:02:21;100025.31;;;24.73;34.28
32642;BME280;19323;56.072;9.698;2022-12-15T14:07:28;100036.72;;;24.66;33.91
32642;BME280;19323;56.072;9.698;2022-12-15T14:09:53;100028.84;;;24.65;34.04
32642;BME280;19323;56.072;9.698;2022-12-15T14:12:19;100039.22;;;24.68;34.14
32642;BME280;19323;56.072;9.698;2022-12-15T14:14:46;100042.56;;;24.70;34.02
32642;BME280;19323;56.072;9.698;2022-12-15T14:17:15;100052.09;;;24.73;33.83
32642;BME280;19323;56.072;9.698;2022-12-15T14:19:43;100050.44;;;24.72;33.88
32642;BME280;19323;56.072;9.698;2022-12-15T14:22:24;100058.63;;;24.78;33.76
32642;BME280;19323;56.072;9.698;2022-12-15T14:24:50;100061.97;;;24.72;34.01
32642;BME280;19323;56.072;9.698;2022-12-15T14:27:24;100070.31;;;24.77;33.96
32642;BME280;19323;56.072;9.698;2022-12-15T14:32:42;100065.66;;;24.71;34.13
32642;BME280;19323;56.072;9.698;2022-12-15T14:35:13;100083.72;;;24.77;33.69
32642;BME280;19323;56.072;9.698;2022-12-15T14:37:42;100079.88;;;24.72;33.79
32642;BME280;19323;56.072;9.698;2022-12-15T14:40:13;100077.06;;;24.73;34.10
32642;BME280;19323;56.072;9.698;2022-12-15T14:42:39;100078.38;;;24.69;33.86
32642;BME280;19323;56.072;9.698;2022-12-15T14:45:16;100084.38;;;24.79;33.67
32642;BME280;19323;56.072;9.698;2022-12-15T14:47:55;100076.03;;;24.74;33.70
32642;BME280;19323;56.072;9.698;2022-12-15T14:50:23;100080.88;;;24.71;33.68
32642;BME280;19323;56.072;9.698;2022-12-15T14:52:54;100086.75;;;24.74;33.53
32642;BME280;19323;56.072;9.698;2022-12-15T14:55:31;100080.72;;;24.72;33.58
32642;BME280;19323;56.072;9.698;2022-12-15T14:57:57;100082.06;;;24.68;33.50
32642;BME280;19323;56.072;9.698;2022-12-15T15:00:24;100081.38;;;24.66;33.38
32642;BME280;19323;56.072;9.698;2022-12-15T15:05:54;100082.88;;;24.68;33.33
32642;BME280;19323;56.072;9.698;2022-12-15T15:10:48;100086.06;;;24.64;33.54
32642;BME280;19323;56.072;9.698;2022-12-15T15:13:18;100085.56;;;24.68;33.37